Time;durP1;ratioP1;P1;durP2;ratioP2;P2;SDS_P1;SDS_P2;PMS_P1;PMS_P2;Temp;Humidity;BMP_temperature;BMP_pressure;BME280_temperature;BME280_humidity;BME280_pressure;Samples;Min_cycle;Max_cycle;Signal;HPM_P1;HPM_P2
2022/03/09 00:01:00;;;;;;;71.72;26.45;;;;;;;-149.78;100.00;50381.47;4803757;29;20399;-69
2022/03/09 00:03:26;;;;;;;66.18;25.52;;;;;;;-149.78;100.00;50361.91;4805341;29;20043;-69
2022/03/09 00:05:51;;;;;;;64.55;26.23;;;;;;;-149.78;100.00;50387.34;4804031;29;20391;-69
2022/03/09 00:08:18;;;;;;;69.70;26.80;;;;;;;-149.78;100.00;50379.53;4822611;29;20491;-69
2022/03/09 00:10:44;;;;;;;63.08;24.60;;;;;;;-149.78;100.00;50385.38;4813835;29;20042;-69
2022/03/09 00:13:09;;;;;;;62.22;24.42;;;;;;;-149.78;100.00;50365.84;4804071;29;20042;-69
2022/03/09 00:15:35;;;;;;;65.82;27.63;;;;;;;-149.78;100.00;50393.22;4805184;29;20069;-69
2022/03/09 00:18:00;;;;;;;61.03;24.23;;;;;;;-149.78;100.00;50391.25;4788843;29;20121;-69
2022/03/09 00:20:26;;;;;;;63.10;24.00;;;;;;;-149.78;100.00;50381.47;4805145;29;20487;-69
2022/03/09 00:22:51;;;;;;;61.65;25.88;;;;;;;-149.78;100.00;50404.94;4805155;29;20426;-69
2022/03/09 00:25:17;;;;;;;62.10;24.98;;;;;;;-149.78;100.00;50397.13;4805148;29;20039;-69
2022/03/09 00:30:25;;;;;;;72.60;28.23;;;;;;;-149.78;100.00;50373.66;5037644;24;20076;-69
2022/03/09 00:32:51;;;;;;;63.17;25.38;;;;;;;-149.78;100.00;50393.22;4839325;29;20038;-69
2022/03/09 00:35:17;;;;;;;69.70;25.98;;;;;;;-149.78;100.00;50393.22;4822359;29;20042;-69
2022/03/09 00:37:42;;;;;;;71.38;28.35;;;;;;;-149.78;100.00;50358.00;4839028;29;20034;-69
2022/03/09 00:40:09;;;;;;;66.93;26.30;;;;;;;-149.78;100.00;50397.13;4825119;29;20042;-69
2022/03/09 00:42:38;;;;;;;79.18;29.17;;;;;;;-149.78;100.00;50432.31;4841235;29;20042;-69
2022/03/09 00:45:06;;;;;;;68.00;28.08;;;;;;;-149.78;100.00;50381.47;4841341;29;20501;-69
2022/03/09 00:47:32;;;;;;;65.28;26.80;;;;;;;-149.78;100.00;50410.81;4822875;29;20069;-69
2022/03/09 00:49:58;;;;;;;71.47;26.73;;;;;;;-149.78;100.00;50375.63;4844936;29;20069;-69
2022/03/09 00:52:25;;;;;;;73.25;27.58;;;;;;;-149.78;100.00;50373.66;4834306;29;20038;-69
2022/03/09 00:54:51;;;;;;;72.50;27.15;;;;;;;-149.78;100.00;50377.56;4808435;29;20043;-69
2022/03/09 00:57:16;;;;;;;63.95;25.60;;;;;;;-149.78;100.00;50397.13;4792083;29;20544;-69
2022/03/09 00:59:42;;;;;;;71.13;26.73;;;;;;;-149.78;100.00;50375.63;4808339;29;20514;-69
2022/03/09 01:02:08;;;;;;;67.72;28.15;;;;;;;-149.78;100.00;50401.03;4808493;29;20054;-69
2022/03/09 01:04:35;;;;;;;69.28;26.02;;;;;;;-149.78;100.00;50385.38;4847771;29;20041;-69
2022/03/09 01:07:01;;;;;;;65.70;27.85;;;;;;;-149.78;100.00;50356.06;4840709;29;20141;-69
2022/03/09 01:09:27;;;;;;;66.55;27.85;;;;;;;-149.78;100.00;50385.38;4828311;29;20062;-69
2022/03/09 01:11:53;;;;;;;66.07;27.50;;;;;;;-149.78;100.00;50346.28;4828199;29;20132;-69
2022/03/09 01:14:19;;;;;;;67.50;28.05;;;;;;;-149.78;100.00;50365.84;4844388;29;20069;-69
2022/03/09 01:16:44;;;;;;;66.25;27.52;;;;;;;-149.78;100.00;50361.91;4844519;29;20113;-69
2022/03/09 01:19:10;;;;;;;81.10;29.77;;;;;;;-149.78;100.00;50365.84;4844515;29;20034;-69
2022/03/09 01:21:36;;;;;;;72.60;28.80;;;;;;;-149.78;100.00;50444.06;4844445;29;20052;-69
2022/03/09 01:24:01;;;;;;;73.07;27.85;;;;;;;-149.78;100.00;50393.22;4844456;29;20045;-68
2022/03/09 01:26:28;;;;;;;75.45;28.90;;;;;;;-149.78;100.00;50381.47;4813008;29;20137;-69
2022/03/09 01:28:54;;;;;;;64.22;27.08;;;;;;;-149.78;100.00;50365.84;4826127;29;20125;-69
2022/03/09 01:31:20;;;;;;;70.57;27.65;;;;;;;-149.78;100.00;50401.03;4809509;29;20034;-69
2022/03/09 01:33:45;;;;;;;69.53;28.40;;;;;;;-149.78;100.00;50356.06;4825973;29;20126;-69
2022/03/09 01:36:11;;;;;;;76.75;28.70;;;;;;;-149.78;100.00;50401.03;4824398;29;20449;-69
2022/03/09 01:38:37;;;;;;;73.20;28.00;;;;;;;-149.78;100.00;50385.38;4834759;29;20030;-69
2022/03/09 01:41:02;;;;;;;67.30;26.38;;;;;;;-149.78;100.00;50383.44;4843886;29;20061;-69
2022/03/09 01:43:28;;;;;;;75.45;28.90;;;;;;;-149.78;100.00;50412.78;4842924;29;20038;-69
2022/03/09 01:45:54;;;;;;;77.45;29.30;;;;;;;-149.78;100.00;50389.31;4844085;29;20106;-69
2022/03/09 01:48:20;;;;;;;70.80;29.25;;;;;;;-149.78;100.00;50399.09;4843870;29;20095;-69
2022/03/09 01:50:46;;;;;;;79.78;30.10;;;;;;;-149.78;100.00;50387.34;4812444;29;20038;-69
2022/03/09 01:53:13;;;;;;;79.22;29.98;;;;;;;-149.78;100.00;50403.00;4843694;29;20050;-69
2022/03/09 01:55:39;;;;;;;76.95;29.38;;;;;;;-149.78;100.00;50412.78;4843904;29;20486;-69
2022/03/09 01:58:05;;;;;;;75.97;30.42;;;;;;;-149.78;100.00;50397.13;4843694;29;20121;-69
2022/03/09 02:00:31;;;;;;;79.43;29.65;;;;;;;-149.78;100.00;50389.31;4842827;29;20041;-69
2022/03/09 02:02:57;;;;;;;76.47;30.58;;;;;;;-149.78;100.00;50410.81;4827060;29;20521;-69
2022/03/09 02:05:23;;;;;;;85.30;30.88;;;;;;;-149.78;100.00;50401.03;4843534;29;20048;-69
2022/03/09 02:10:32;;;;;;;80.03;30.35;;;;;;;-149.78;100.00;50379.53;4825346;29;20484;-69
2022/03/09 02:12:59;;;;;;;76.18;31.27;;;;;;;-149.78;100.00;50401.03;4809127;29;20067;-69
2022/03/09 02:15:24;;;;;;;72.10;29.45;;;;;;;-149.78;100.00;50436.25;4808607;29;20133;-69
2022/03/09 02:17:50;;;;;;;77.15;29.48;;;;;;;-149.78;100.00;50410.81;4825238;29;20198;-69
2022/03/09 02:20:16;;;;;;;82.53;29.17;;;;;;;-149.78;100.00;50377.56;4824929;29;20034;-69
2022/03/09 02:22:43;;;;;;;76.18;29.40;;;;;;;-149.78;100.00;50404.94;4823999;29;20046;-68
2022/03/09 02:25:11;;;;;;;78.53;29.77;;;;;;;-149.78;100.00;50389.31;4824577;29;20038;-69
2022/03/09 02:27:37;;;;;;;78.95;30.60;;;;;;;-149.78;100.00;50379.53;4841009;29;20030;-69
2022/03/09 02:30:04;;;;;;;84.97;30.63;;;;;;;-149.78;100.00;50424.50;4842978;29;20053;-69
2022/03/09 02:32:30;;;;;;;73.03;28.35;;;;;;;-149.78;100.00;50383.44;4831876;29;20136;-69
2022/03/09 02:34:56;;;;;;;81.00;29.05;;;;;;;-149.78;100.00;50424.50;4818668;29;20133;-69
2022/03/09 02:37:22;;;;;;;86.13;30.70;;;;;;;-149.78;100.00;50385.38;4832537;29;20046;-69
2022/03/09 02:39:47;;;;;;;75.00;30.30;;;;;;;-149.78;100.00;50406.91;4823132;29;20039;-69
2022/03/09 02:42:13;;;;;;;77.18;30.30;;;;;;;-149.78;100.00;50381.47;4824509;29;20050;-69
2022/03/09 02:44:39;;;;;;;75.80;28.40;;;;;;;-149.78;100.00;50418.63;4824890;29;20042;-69
2022/03/09 02:47:06;;;;;;;81.88;30.95;;;;;;;-149.78;100.00;50404.94;4823110;29;20034;-69
2022/03/09 02:49:32;;;;;;;79.45;31.85;;;;;;;-149.78;100.00;50408.84;4824662;29;20479;-69
2022/03/09 02:51:58;;;;;;;75.78;29.08;;;;;;;-149.78;100.00;50371.69;4808265;29;20533;-69
2022/03/09 02:54:24;;;;;;;73.43;29.27;;;;;;;-149.78;100.00;50412.78;4823057;29;20047;-69
2022/03/09 02:56:50;;;;;;;84.43;29.60;;;;;;;-149.78;100.00;50399.09;4793439;29;20042;-69
2022/03/09 02:59:15;;;;;;;79.85;30.77;;;;;;;-149.78;100.00;50420.59;4824511;29;20038;-69
2022/03/09 03:01:41;;;;;;;87.68;30.38;;;;;;;-149.78;100.00;50418.63;4824643;29;20656;-69
2022/03/09 03:04:07;;;;;;;71.30;28.65;;;;;;;-149.78;100.00;50391.25;4808058;29;20360;-69
2022/03/09 03:06:33;;;;;;;74.80;29.88;;;;;;;-149.78;100.00;50381.47;4824228;29;20490;-70
2022/03/09 03:08:59;;;;;;;76.53;28.98;;;;;;;-149.78;100.00;50424.50;4824548;29;20042;-69
2022/03/09 03:11:24;;;;;;;75.90;28.60;;;;;;;-149.78;100.00;50403.00;4823078;29;20042;-69
2022/03/09 03:13:51;;;;;;;81.75;28.17;;;;;;;-149.78;100.00;50412.78;4824485;29;20042;-69
2022/03/09 03:16:17;;;;;;;73.30;28.52;;;;;;;-149.78;100.00;50401.03;4824310;29;20402;-69
2022/03/09 03:18:43;;;;;;;69.82;27.80;;;;;;;-149.78;100.00;50406.91;4824186;29;20046;-69
2022/03/09 03:21:09;;;;;;;85.22;27.80;;;;;;;-149.78;100.00;50385.38;4824160;29;20038;-69
2022/03/09 03:23:35;;;;;;;77.57;27.95;;;;;;;-149.78;100.00;50401.03;4807913;29;20042;-69
2022/03/09 03:26:04;;;;;;;76.20;28.92;;;;;;;-149.78;100.00;50393.22;4824268;29;20053;-69
2022/03/09 03:28:31;;;;;;;73.93;28.20;;;;;;;-149.78;100.00;50403.00;4824169;29;20030;-69
2022/03/09 03:30:56;;;;;;;73.65;27.27;;;;;;;-149.78;100.00;50401.03;4807616;29;20062;-69
2022/03/09 03:33:22;;;;;;;78.47;27.90;;;;;;;-149.78;100.00;50434.28;4792734;29;20137;-69
2022/03/09 03:35:49;;;;;;;72.38;28.23;;;;;;;-149.78;100.00;50393.22;4824100;29;20038;-68
2022/03/09 03:38:16;;;;;;;68.28;26.45;;;;;;;-149.78;100.00;50371.69;4807624;29;20383;-69
2022/03/09 03:40:41;;;;;;;73.72;27.52;;;;;;;-149.78;100.00;50412.78;4824130;29;20090;-69
2022/03/09 03:43:07;;;;;;;71.30;26.95;;;;;;;-149.78;100.00;50393.22;4823868;29;20491;-69
2022/03/09 03:45:32;;;;;;;71.13;27.27;;;;;;;-149.78;100.00;50381.47;4824077;29;20061;-69
2022/03/09 03:47:58;;;;;;;68.68;26.52;;;;;;;-149.78;100.00;50363.88;4792422;29;20121;-69
2022/03/09 03:50:24;;;;;;;68.50;26.27;;;;;;;-149.78;100.00;50401.03;4823864;29;20042;-70
2022/03/09 03:52:50;;;;;;;71.60;26.55;;;;;;;-149.78;100.00;50401.03;4825856;29;20030;-69
2022/03/09 03:55:16;;;;;;;70.88;27.35;;;;;;;-149.78;100.00;50420.59;4825020;29;20474;-69
2022/03/09 03:57:41;;;;;;;68.35;27.05;;;;;;;-149.78;100.00;50397.13;4841423;29;20037;-69
2022/03/09 04:00:08;;;;;;;72.10;26.90;;;;;;;-149.78;100.00;50379.53;4841733;29;20428;-69
2022/03/09 04:02:34;;;;;;;69.43;27.50;;;;;;;-149.78;100.00;50412.78;4841419;29;20030;-69
2022/03/09 04:05:00;;;;;;;76.25;27.83;;;;;;;-149.78;100.00;50397.13;4841782;29;20145;-69
2022/03/09 04:07:26;;;;;;;72.38;27.70;;;;;;;-149.78;100.00;50393.22;4841221;29;20041;-69
2022/03/09 04:09:52;;;;;;;65.47;28.23;;;;;;;-149.78;100.00;50420.59;4841412;29;20030;-68
2022/03/09 04:12:18;;;;;;;79.05;29.60;;;;;;;-149.78;100.00;50436.25;4841599;29;20126;-69
2022/03/09 04:14:44;;;;;;;74.82;28.02;;;;;;;-149.78;100.00;50412.78;4841553;29;20054;-68
2022/03/09 04:17:31;;;;;;;70.53;27.50;;;;;;;-149.78;100.00;50401.03;4799637;29;20039;-69
2022/03/09 04:20:19;;;;;;;78.20;28.45;;;;;;;-149.78;100.00;50383.44;4784599;29;20133;-69
2022/03/09 04:22:45;;;;;;;68.45;26.50;;;;;;;-149.78;100.00;50401.03;4803078;29;20138;-69
2022/03/09 04:25:11;;;;;;;69.75;24.98;;;;;;;-149.78;100.00;50408.84;4805128;29;20043;-69
2022/03/09 04:27:38;;;;;;;76.38;26.40;;;;;;;-149.78;100.00;50424.50;4823195;29;20542;-69
2022/03/09 04:30:05;;;;;;;65.15;26.58;;;;;;;-149.78;100.00;50381.47;4841352;29;20538;-69
2022/03/09 04:32:32;;;;;;;67.32;25.10;;;;;;;-149.78;100.00;50358.00;4825129;29;20036;-69
2022/03/09 04:34:57;;;;;;;64.60;24.80;;;;;;;-149.78;100.00;50395.16;4825152;29;20351;-69
2022/03/09 04:37:23;;;;;;;65.32;25.48;;;;;;;-149.78;100.00;50377.56;4835899;29;20050;-69
2022/03/09 04:39:49;;;;;;;65.47;25.25;;;;;;;-149.78;100.00;50381.47;4830662;29;20042;-69
2022/03/09 04:42:15;;;;;;;60.00;23.63;;;;;;;-149.78;100.00;50393.22;4841164;29;20045;-69
2022/03/09 04:44:40;;;;;;;60.30;23.75;;;;;;;-149.78;100.00;50406.91;4841204;29;20042;-69
2022/03/09 04:47:06;;;;;;;58.60;22.92;;;;;;;-149.78;100.00;50387.34;4809587;29;20038;-69
2022/03/09 04:49:32;;;;;;;62.50;22.08;;;;;;;-149.78;100.00;50408.84;4841289;29;20144;-69
2022/03/09 04:51:57;;;;;;;58.33;21.88;;;;;;;-149.78;100.00;50385.38;4840039;29;20049;-69
2022/03/09 04:54:23;;;;;;;59.47;22.20;;;;;;;-149.78;100.00;50371.69;4797956;29;20042;-69
2022/03/09 04:56:49;;;;;;;69.60;22.48;;;;;;;-149.78;100.00;50385.38;4819238;29;20121;-69
2022/03/09 04:59:17;;;;;;;50.25;20.13;;;;;;;-149.78;100.00;50420.59;4824953;29;20038;-69
2022/03/09 05:01:42;;;;;;;60.88;22.85;;;;;;;-149.78;100.00;50387.34;4815846;29;20582;-69
2022/03/09 05:04:08;;;;;;;56.20;23.20;;;;;;;-149.78;100.00;50371.69;4822985;29;20073;-69
2022/03/09 05:06:33;;;;;;;65.35;24.10;;;;;;;-149.78;100.00;50393.22;4825066;29;20041;-69
2022/03/09 05:08:59;;;;;;;63.88;24.77;;;;;;;-149.78;100.00;50350.19;4806757;29;20375;-69
2022/03/09 05:11:25;;;;;;;64.30;23.77;;;;;;;-149.78;100.00;50391.25;4823419;29;20171;-69
2022/03/09 05:13:50;;;;;;;62.35;24.83;;;;;;;-149.78;100.00;50359.97;4840213;29;20193;-69
2022/03/09 05:16:16;;;;;;;68.43;23.10;;;;;;;-149.78;100.00;50401.03;4841079;29;20034;-69
2022/03/09 05:18:41;;;;;;;62.30;24.05;;;;;;;-149.78;100.00;50424.50;4840928;29;20042;-69
2022/03/09 05:21:08;;;;;;;63.42;25.00;;;;;;;-149.78;100.00;50426.47;4839879;29;20045;-69
2022/03/09 05:23:34;;;;;;;62.90;23.45;;;;;;;-149.78;100.00;50424.50;4841015;29;20041;-69
2022/03/09 05:26:00;;;;;;;67.00;25.23;;;;;;;-149.78;100.00;50381.47;4840923;29;20038;-69
2022/03/09 05:28:25;;;;;;;63.58;24.05;;;;;;;-149.78;100.00;50416.69;4840811;29;20030;-69
2022/03/09 05:30:51;;;;;;;64.55;22.88;;;;;;;-149.78;100.00;50399.09;4840478;29;20503;-69
2022/03/09 05:33:17;;;;;;;53.97;21.77;;;;;;;-149.78;100.00;50377.56;4840884;29;20108;-69
2022/03/09 05:35:43;;;;;;;56.47;21.38;;;;;;;-149.78;100.00;50389.31;4841471;29;20042;-69
2022/03/09 05:38:08;;;;;;;55.42;20.65;;;;;;;-149.78;100.00;50377.56;4827502;29;20034;-69
2022/03/09 05:40:34;;;;;;;55.40;20.90;;;;;;;-149.78;100.00;50391.25;4844055;29;20124;-69
2022/03/09 05:43:00;;;;;;;51.70;20.50;;;;;;;-149.78;100.00;50408.84;4844283;29;20125;-69
2022/03/09 05:45:26;;;;;;;59.42;21.45;;;;;;;-149.78;100.00;50397.13;4843964;29;20520;-69
2022/03/09 05:47:52;;;;;;;55.53;20.42;;;;;;;-149.78;100.00;50381.47;4843018;29;20050;-69
2022/03/09 05:50:18;;;;;;;53.53;20.05;;;;;;;-149.78;100.00;50406.91;4827628;29;20045;-69
2022/03/09 05:52:44;;;;;;;58.97;21.63;;;;;;;-149.78;100.00;50422.56;4843963;29;20038;-69
2022/03/09 05:55:10;;;;;;;56.35;19.88;;;;;;;-149.78;100.00;50401.03;4842700;29;20390;-70
2022/03/09 05:57:36;;;;;;;63.92;20.33;;;;;;;-149.78;100.00;50397.13;4843868;29;20046;-69
2022/03/09 06:00:02;;;;;;;52.08;19.58;;;;;;;-149.78;100.00;50408.84;4843831;29;20053;-69
2022/03/09 06:02:28;;;;;;;54.00;19.85;;;;;;;-149.78;100.00;50424.50;4828598;29;20049;-69
2022/03/09 06:04:54;;;;;;;53.45;20.13;;;;;;;-149.78;100.00;50418.63;4794243;29;20042;-69
2022/03/09 06:07:20;;;;;;;55.85;20.75;;;;;;;-149.78;100.00;50403.00;4808774;29;20053;-69
2022/03/09 06:09:45;;;;;;;59.17;20.85;;;;;;;-149.78;100.00;50397.13;4824033;29;20042;-69
2022/03/09 06:12:11;;;;;;;56.45;21.38;;;;;;;-149.78;100.00;50444.06;4825122;29;20042;-70
2022/03/09 06:14:37;;;;;;;61.45;21.42;;;;;;;-149.78;100.00;50389.31;4825042;29;20090;-69
2022/03/09 06:17:03;;;;;;;55.78;21.77;;;;;;;-149.78;100.00;50420.59;4823716;29;20106;-69
2022/03/09 06:19:28;;;;;;;60.38;22.70;;;;;;;-149.78;100.00;50393.22;4824913;29;20047;-69
2022/03/09 06:21:54;;;;;;;66.25;24.73;;;;;;;-149.78;100.00;50412.78;4823923;29;20145;-70
2022/03/09 06:24:20;;;;;;;61.08;23.70;;;;;;;-149.78;100.00;50373.66;4808491;29;20045;-69
2022/03/09 06:26:45;;;;;;;67.28;22.50;;;;;;;-149.78;100.00;50389.31;4824766;29;20061;-69
2022/03/09 06:29:12;;;;;;;68.38;23.20;;;;;;;-149.78;100.00;50397.13;4824596;29;20053;-69
2022/03/09 06:31:38;;;;;;;64.07;22.90;;;;;;;-149.78;100.00;50399.09;4824686;29;20486;-69
2022/03/09 06:34:04;;;;;;;58.70;22.00;;;;;;;-149.78;100.00;50440.16;4823711;29;20054;-70
2022/03/09 06:36:30;;;;;;;64.80;23.25;;;;;;;-149.78;100.00;50399.09;4824917;29;20038;-69
2022/03/09 06:38:55;;;;;;;67.53;22.48;;;;;;;-149.78;100.00;50393.22;4823600;29;20043;-69
2022/03/09 06:41:21;;;;;;;57.50;21.42;;;;;;;-149.78;100.00;50408.84;4823663;29;20064;-69
2022/03/09 06:43:47;;;;;;;64.63;22.73;;;;;;;-149.78;100.00;50369.75;4824805;29;20042;-69
2022/03/09 06:46:12;;;;;;;61.03;22.42;;;;;;;-149.78;100.00;50408.84;4824493;29;20050;-69
2022/03/09 06:48:38;;;;;;;58.47;20.98;;;;;;;-149.78;100.00;50416.69;4842084;29;20048;-69
2022/03/09 06:51:04;;;;;;;51.00;19.83;;;;;;;-149.78;100.00;50397.13;4823192;29;20041;-69
2022/03/09 06:53:30;;;;;;;53.25;21.20;;;;;;;-149.78;100.00;50397.13;4820582;29;20038;-69
2022/03/09 06:55:56;;;;;;;49.67;19.80;;;;;;;-149.78;100.00;50414.72;4820049;29;20491;-69
2022/03/09 06:58:23;;;;;;;51.75;18.80;;;;;;;-149.78;100.00;50393.22;4806363;29;20073;-69
2022/03/09 07:00:49;;;;;;;48.80;18.73;;;;;;;-149.78;100.00;50383.44;4817387;29;20042;-69
2022/03/09 07:03:16;;;;;;;49.97;16.98;;;;;;;-149.78;100.00;50412.78;4821543;29;20049;-69
2022/03/09 07:05:41;;;;;;;48.65;18.23;;;;;;;-149.78;100.00;50365.84;4821768;29;20054;-69
2022/03/09 07:08:07;;;;;;;48.28;17.13;;;;;;;-149.78;100.00;50428.41;4802203;29;20034;-70
2022/03/09 07:10:33;;;;;;;49.30;16.23;;;;;;;-149.78;100.00;50385.38;4816925;29;20154;-68
2022/03/09 07:13:00;;;;;;;45.65;15.90;;;;;;;-149.78;100.00;50354.09;4821760;29;20065;-72
2022/03/09 07:15:26;;;;;;;45.97;16.08;;;;;;;-149.78;100.00;50369.75;4821250;29;20394;-69
2022/03/09 07:17:52;;;;;;;45.20;15.73;;;;;;;-149.78;100.00;50428.41;4823749;29;20471;-69
2022/03/09 07:20:19;;;;;;;43.78;16.35;;;;;;;-149.78;100.00;50354.09;4823940;29;20064;-69
2022/03/09 07:22:45;;;;;;;48.30;15.63;;;;;;;-149.78;100.00;50385.38;4823941;29;20038;-71
2022/03/09 07:25:12;;;;;;;42.28;16.45;;;;;;;-149.78;100.00;50371.69;4823957;29;20376;-70
2022/03/09 07:27:38;;;;;;;45.40;16.13;;;;;;;-149.78;100.00;50383.44;4823342;29;20039;-71
2022/03/09 07:30:05;;;;;;;41.55;16.95;;;;;;;-149.78;100.00;50412.78;4822331;29;20046;-69
2022/03/09 07:32:31;;;;;;;38.60;15.00;;;;;;;-149.78;100.00;50412.78;4811940;29;20038;-69
2022/03/09 07:34:57;;;;;;;46.42;15.90;;;;;;;-149.78;100.00;50403.00;4822580;29;20487;-69
2022/03/09 07:37:23;;;;;;;42.58;15.65;;;;;;;-149.78;100.00;50397.13;4823291;29;20062;-69
2022/03/09 07:39:49;;;;;;;43.60;16.42;;;;;;;-149.78;100.00;50404.94;4823877;29;20176;-69
2022/03/09 07:42:15;;;;;;;44.70;15.98;;;;;;;-149.78;100.00;50408.84;4823001;29;20034;-69
2022/03/09 07:44:40;;;;;;;42.72;16.27;;;;;;;-149.78;100.00;50387.34;4801696;29;20035;-69
2022/03/09 07:47:06;;;;;;;37.92;16.15;;;;;;;-149.78;100.00;50430.38;4806362;29;20084;-69
2022/03/09 07:49:33;;;;;;;44.90;16.48;;;;;;;-149.78;100.00;50367.78;4820917;29;20047;-69
2022/03/09 07:52:00;;;;;;;45.38;15.73;;;;;;;-149.78;100.00;50397.13;4822458;29;20075;-69
2022/03/09 07:54:26;;;;;;;41.72;15.85;;;;;;;-149.78;100.00;50377.56;4822903;29;20479;-69
2022/03/09 07:56:52;;;;;;;40.85;15.48;;;;;;;-149.78;100.00;50373.66;4821419;29;20150;-69
2022/03/09 07:59:18;;;;;;;44.00;15.98;;;;;;;-149.78;100.00;50397.13;4805299;29;20055;-69
2022/03/09 08:01:44;;;;;;;50.10;16.67;;;;;;;-149.78;100.00;50385.38;4796827;29;20050;-68
2022/03/09 08:04:10;;;;;;;41.30;15.63;;;;;;;-149.78;100.00;50408.84;4822628;29;20030;-69
2022/03/09 08:06:40;;;;;;;43.17;15.98;;;;;;;-149.78;100.00;50404.94;4821453;29;20030;-70
2022/03/09 08:09:07;;;;;;;41.88;17.20;;;;;;;-149.78;100.00;50365.84;4823607;29;20041;-69
2022/03/09 08:11:33;;;;;;;52.90;18.30;;;;;;;-149.78;100.00;50389.31;4804041;29;20413;-69
2022/03/09 08:13:59;;;;;;;49.95;17.77;;;;;;;-149.78;100.00;50389.31;4802082;29;20121;-69
2022/03/09 08:16:25;;;;;;;46.17;16.05;;;;;;;-149.78;100.00;50385.38;4801268;29;20038;-69
2022/03/09 08:18:50;;;;;;;45.55;15.45;;;;;;;-149.78;100.00;50408.84;4813602;29;20034;-71
2022/03/09 08:21:17;;;;;;;44.67;16.00;;;;;;;-149.78;100.00;50393.22;4811025;29;20436;-69
2022/03/09 08:23:42;;;;;;;42.53;15.20;;;;;;;-149.78;100.00;50361.91;4822402;29;20042;-70
2022/03/09 08:26:08;;;;;;;37.92;15.40;;;;;;;-149.78;100.00;50377.56;4821892;29;20367;-70
2022/03/09 08:28:34;;;;;;;46.90;15.10;;;;;;;-149.78;100.00;50363.88;4818780;29;20370;-69
2022/03/09 08:31:00;;;;;;;39.22;13.30;;;;;;;-149.78;100.00;50358.00;4817797;29;20066;-70
2022/03/09 08:33:26;;;;;;;34.78;13.45;;;;;;;-149.78;100.00;50373.66;4800800;29;20042;-69
2022/03/09 08:35:54;;;;;;;37.40;12.65;;;;;;;-149.78;100.00;50338.44;4804160;29;20054;-69
2022/03/09 08:38:20;;;;;;;33.08;11.35;;;;;;;-149.78;100.00;50383.44;4815248;29;20514;-69
2022/03/09 08:40:46;;;;;;;33.97;11.52;;;;;;;-149.78;100.00;50330.63;4805808;29;20030;-70
2022/03/09 08:43:12;;;;;;;31.88;11.43;;;;;;;-149.78;100.00;50361.91;4805953;29;20172;-70
2022/03/09 08:45:38;;;;;;;33.90;11.32;;;;;;;-149.78;100.00;50338.44;4823000;29;20506;-69
2022/03/09 08:48:05;;;;;;;24.65;10.63;;;;;;;-149.78;100.00;50326.72;4835766;29;20035;-69
2022/03/09 08:50:31;;;;;;;27.88;11.00;;;;;;;-149.78;100.00;50328.69;4809366;29;20045;-69
2022/03/09 08:52:58;;;;;;;22.33;9.65;;;;;;;-149.78;100.00;50287.59;4841375;29;20402;-70
2022/03/09 08:55:24;;;;;;;25.08;9.35;;;;;;;-149.78;100.00;50250.44;4824782;29;20041;-70
2022/03/09 08:57:49;;;;;;;19.52;8.05;;;;;;;-149.78;100.00;50260.22;4824562;29;20410;-70
2022/03/09 09:00:15;;;;;;;24.50;9.73;;;;;;;-149.78;100.00;50236.75;4826942;29;20034;-70
2022/03/09 09:02:41;;;;;;;19.90;8.07;;;;;;;-149.78;100.00;50238.72;4821929;29;20391;-70
2022/03/09 09:05:07;;;;;;;16.08;5.97;;;;;;;-149.78;100.00;50217.19;4806075;29;20487;-70
2022/03/09 09:07:32;;;;;;;17.27;6.15;;;;;;;-149.78;100.00;50230.88;4822750;29;20146;-70
2022/03/09 09:09:58;;;;;;;17.50;6.13;;;;;;;-149.78;100.00;50250.44;4824742;29;20503;-70
2022/03/09 09:12:24;;;;;;;17.65;5.22;;;;;;;-149.78;100.00;50240.66;4825092;29;20046;-70
2022/03/09 09:14:50;;;;;;;17.25;5.55;;;;;;;-149.78;100.00;50197.66;4825039;29;20046;-70
2022/03/09 09:17:15;;;;;;;10.90;5.35;;;;;;;-149.78;100.00;50174.19;4808939;29;20038;-68
2022/03/09 09:19:41;;;;;;;13.75;4.97;;;;;;;-149.78;100.00;50160.50;4825091;29;20436;-69
2022/03/09 09:22:08;;;;;;;14.20;5.13;;;;;;;-149.78;100.00;50182.00;4825964;29;20046;-68
2022/03/09 09:24:34;;;;;;;11.77;5.28;;;;;;;-149.78;100.00;50230.88;4825800;29;20123;-68
2022/03/09 09:26:59;;;;;;;16.25;5.65;;;;;;;-149.78;100.00;50248.50;4826161;29;20046;-68
2022/03/09 09:29:25;;;;;;;15.02;5.35;;;;;;;-149.78;100.00;50279.78;4825759;29;20145;-68
2022/03/09 09:31:51;;;;;;;22.50;6.47;;;;;;;-149.78;100.00;50279.78;4825727;29;20042;-68
2022/03/09 09:34:16;;;;;;;12.85;5.43;;;;;;;-149.78;100.00;50295.44;4809808;29;20067;-68
2022/03/09 09:36:45;;;;;;;16.30;4.95;;;;;;;-149.78;100.00;50250.44;4809649;29;20558;-68
2022/03/09 09:39:13;;;;;;;14.18;4.80;;;;;;;-149.78;100.00;50250.44;4825613;29;20406;-68
2022/03/09 09:41:44;;;;;;;21.55;4.95;;;;;;;-149.78;100.00;50234.81;4809589;29;20057;-68
2022/03/09 09:44:11;;;;;;;14.25;5.00;;;;;;;-149.78;100.00;50240.66;4825704;29;20045;-68
2022/03/09 09:46:39;;;;;;;20.40;4.75;;;;;;;-149.78;100.00;50217.19;4811582;29;20074;-68
2022/03/09 09:49:15;;;;;;;10.88;3.80;;;;;;;-149.78;100.00;50185.91;4844100;29;20086;-68
2022/03/09 09:51:45;;;;;;;9.90;4.13;;;;;;;-149.78;100.00;50170.25;4844045;29;20470;-68
2022/03/09 09:54:11;;;;;;;17.63;4.47;;;;;;;-149.78;100.00;50162.44;4843931;29;20034;-68
2022/03/09 09:56:38;;;;;;;13.00;4.78;;;;;;;-149.78;86.93;50127.25;4844011;29;20065;-69
2022/03/09 09:59:05;;;;;;;14.85;4.50;;;;;;;-149.78;80.19;50111.59;4843750;29;20070;-69
2022/03/09 10:01:32;;;;;;;11.48;4.05;;;;;;;-149.78;73.77;50125.28;4836264;29;20476;-67
2022/03/09 10:03:57;;;;;;;10.38;3.67;;;;;;;-149.78;75.19;50146.81;4825551;29;20037;-68
2022/03/09 10:06:23;;;;;;;10.82;5.00;;;;;;;-149.78;73.55;50111.59;4825402;29;20429;-68
2022/03/09 10:09:07;;;;;;;13.52;4.32;;;;;;;-149.78;67.56;50103.78;4825254;29;20038;-68
2022/03/09 10:11:50;;;;;;;13.10;4.10;;;;;;;-149.78;65.01;50111.59;4825222;29;20038;-68
2022/03/09 10:14:16;;;;;;;;;;;;;;;-149.78;57.98;50076.41;4825509;29;20047;-68
2022/03/09 10:17:05;;;;;;;14.93;4.05;;;;;;;-149.78;56.22;50064.66;4825241;29;20125;-68
2022/03/09 10:19:39;;;;;;;12.10;4.28;;;;;;;-149.78;52.47;50041.19;4807538;29;20118;-68
2022/03/09 10:22:21;;;;;;;10.13;3.40;;;;;;;-149.78;49.34;50017.72;4820654;29;20034;-68
2022/03/09 10:24:48;;;;;;;7.28;3.42;;;;;;;-149.78;48.30;50015.78;4789861;29;20034;-68
2022/03/09 10:27:44;;;;;;;9.45;2.72;;;;;;;-149.78;53.36;50090.09;4821625;29;20030;-68
2022/03/09 10:30:14;;;;;;;7.35;2.85;;;;;;;-149.78;57.68;50119.41;4816457;29;20050;-68
2022/03/09 10:32:47;;;;;;;10.90;3.50;;;;;;;-149.78;57.46;50103.78;4823751;29;20034;-68
2022/03/09 10:35:15;;;;;;;13.45;3.40;;;;;;;-149.78;61.04;50185.91;4824317;29;20053;-68
2022/03/09 10:37:42;;;;;;;14.05;3.25;;;;;;;-149.78;58.45;50166.34;4823969;29;20052;-68
2022/03/09 10:40:20;;;;;;;11.68;3.03;;;;;;;-149.78;56.63;50197.66;4792413;29;20572;-68
2022/03/09 10:42:47;;;;;;;8.40;2.70;;;;;;;-149.78;58.57;50131.16;4823729;29;20046;-68
2022/03/09 10:45:17;;;;;;;9.05;2.55;;;;;;;-149.78;54.30;50154.63;4807440;29;20038;-68
2022/03/09 10:47:45;;;;;;;10.38;2.60;;;;;;;-149.78;55.29;50162.44;4821600;29;20491;-68
2022/03/09 10:50:11;;;;;;;7.07;2.40;;;;;;;-149.78;57.13;50166.34;4823527;29;20121;-68
2022/03/09 10:52:49;;;;;;;9.55;2.60;;;;;;;-149.78;56.49;50148.75;4823419;29;20141;-67
2022/03/09 10:55:26;;;;;;;9.98;2.50;;;;;;;-149.78;54.70;50103.78;4823648;29;20034;-68
2022/03/09 10:58:05;;;;;;;10.10;2.88;;;;;;;-149.78;58.49;50162.44;4823583;29;20046;-68
2022/03/09 11:00:38;;;;;;;8.32;2.70;;;;;;;-149.78;63.04;50170.25;4821103;29;20026;-67